Time;durP1;ratioP1;P1;durP2;ratioP2;P2;SDS_P1;SDS_P2;PMS_P1;PMS_P2;Temp;Humidity;BMP_temperature;BMP_pressure;BME280_temperature;BME280_humidity;BME280_pressure;Samples;Min_cycle;Max_cycle;Signal;HPM_P1;HPM_P2
2022/11/05 00:10:28;;;;;;;1.53;0.90;;;16.90;99.90;;;17.66;57.46;101041.66;4884095;28;96980;-45
2022/11/05 00:18:26;;;;;;;0.60;0.60;;;16.80;99.90;;;17.65;57.35;101037.25;4903185;28;97180;-45
2022/11/05 00:20:51;;;;;;;1.33;1.10;;;16.80;99.90;;;17.66;57.55;101044.34;4890752;28;97064;-47
2022/11/05 00:26:08;;;;;;;1.97;1.17;;;16.80;99.90;;;17.59;57.75;101045.63;4893415;28;96802;-46
2022/11/05 00:28:34;;;;;;;2.47;1.03;;;16.70;99.90;;;17.60;57.53;101044.69;4890081;28;97191;-50
2022/11/05 00:31:09;;;;;;;1.03;0.83;;;16.80;99.90;;;17.61;57.40;101038.38;4884688;28;97183;-45
2022/11/05 00:33:41;;;;;;;4.67;2.07;;;16.80;99.90;;;17.55;57.09;101053.81;4910844;28;96886;-45
2022/11/05 00:36:09;;;;;;;1.30;0.80;;;16.70;99.90;;;17.48;57.85;101051.56;4882472;28;97775;-46
2022/11/05 00:38:35;;;;;;;1.27;1.00;;;16.60;99.90;;;17.47;57.92;101065.84;4887961;28;97123;-47
2022/11/05 00:41:01;;;;;;;1.70;0.90;;;16.50;99.90;;;17.46;58.08;101059.66;4889185;28;97323;-49
2022/11/05 00:46:11;;;;;;;2.50;1.40;;;16.50;99.90;;;17.38;58.43;101077.06;4887151;28;99857;-47
2022/11/05 00:51:22;;;;;;;1.60;0.73;;;16.40;99.90;;;17.44;58.17;101082.91;4882366;28;97604;-49
2022/11/05 00:53:47;;;;;;;1.00;1.00;;;16.60;99.90;;;17.53;58.13;101084.19;4885786;28;97336;-46
2022/11/05 00:56:13;;;;;;;2.07;1.13;;;16.80;99.90;;;17.56;57.98;101100.00;4894349;28;98375;-48
2022/11/05 00:58:39;;;;;;;2.33;0.90;;;16.80;99.90;;;17.49;57.88;101096.81;4897021;28;99812;-45
2022/11/05 01:01:05;;;;;;;1.00;0.70;;;16.70;99.90;;;17.53;57.94;101098.38;4883872;28;97068;-47
2022/11/05 01:03:34;;;;;;;0.60;0.50;;;16.70;99.90;;;17.57;57.87;101093.72;4899306;28;97994;-49
2022/11/05 01:06:11;;;;;;;2.57;0.77;;;16.80;99.90;;;17.60;57.58;101103.34;4887493;28;97051;-45
2022/11/05 01:08:38;;;;;;;2.57;1.90;;;16.80;99.90;;;17.53;57.56;101102.88;4890048;28;96782;-49
2022/11/05 01:11:31;;;;;;;3.23;1.43;;;16.60;99.90;;;17.49;57.98;101111.97;4885226;28;97356;-46
2022/11/05 01:14:06;;;;;;;1.13;0.77;;;16.50;99.90;;;17.45;58.16;101105.97;4884824;28;97400;-46
2022/11/05 01:16:32;;;;;;;1.37;0.80;;;16.50;99.90;;;17.44;58.11;101106.91;4892219;28;97277;-46
2022/11/05 01:18:58;;;;;;;1.77;1.00;;;16.50;99.90;;;17.47;57.92;101109.38;4885265;28;97324;-46
2022/11/05 01:21:24;;;;;;;2.23;0.63;;;16.60;99.90;;;17.50;57.99;101113.69;4889310;28;98708;-46
2022/11/05 01:23:49;;;;;;;0.63;0.57;;;16.60;99.90;;;17.50;57.85;101114.56;4887978;28;97419;-50
2022/11/05 01:26:15;;;;;;;1.20;0.50;;;16.60;99.90;;;17.44;57.82;101117.56;4892421;28;97804;-46
2022/11/05 01:28:41;;;;;;;1.70;0.73;;;16.50;99.90;;;17.45;57.89;101113.94;4890749;28;97445;-50
2022/11/05 01:31:07;;;;;;;0.77;0.60;;;16.50;99.90;;;17.44;57.96;101114.91;4888115;28;98131;-48
2022/11/05 01:33:32;;;;;;;0.60;0.60;;;16.50;99.90;;;17.44;57.96;101114.91;4893625;28;115846;-46
2022/11/05 01:35:58;;;;;;;0.77;0.63;;;16.60;99.90;;;17.46;57.83;101129.00;4886103;28;98032;-46
2022/11/05 01:38:24;;;;;;;1.07;0.87;;;16.60;99.90;;;17.44;57.96;101130.91;4893201;28;97050;-46
2022/11/05 01:40:50;;;;;;;1.80;1.03;;;16.50;99.90;;;17.41;58.09;101128.41;4880087;28;97579;-46
2022/11/05 01:43:22;;;;;;;1.60;1.27;;;16.50;99.90;;;17.33;58.17;101133.31;4878134;28;97366;-45
2022/11/05 01:45:52;;;;;;;0.63;0.63;;;16.30;99.90;;;17.27;58.29;101143.47;4888897;28;97660;-45
2022/11/05 01:48:34;;;;;;;2.13;1.00;;;16.20;99.90;;;17.29;58.33;101139.78;4879495;28;97293;-49
2022/11/05 01:51:11;;;;;;;2.30;1.43;;;16.30;99.90;;;17.25;58.68;101151.56;4880711;28;97625;-47
2022/11/05 01:54:02;;;;;;;5.23;1.90;;;16.20;99.90;;;17.30;58.21;101153.97;4887479;28;97979;-46
2022/11/05 01:56:33;;;;;;;1.43;0.83;;;16.40;99.90;;;17.38;58.09;101149.94;4891344;28;103207;-49
2022/11/05 01:59:17;;;;;;;1.00;0.50;;;16.60;99.90;;;17.53;57.56;101141.06;4893098;28;97222;-49
2022/11/05 02:01:44;;;;;;;1.13;0.60;;;16.90;99.90;;;17.62;57.15;101154.81;4883942;28;97146;-48
2022/11/05 02:04:25;;;;;;;1.47;0.90;;;17.10;99.90;;;17.63;57.21;101151.19;4887638;28;103551;-47
2022/11/05 02:06:52;;;;;;;1.23;0.90;;;17.00;99.90;;;17.63;57.13;101153.84;4872461;28;97011;-47
2022/11/05 02:09:25;;;;;;;3.00;0.90;;;16.90;99.90;;;17.61;57.39;101150.41;4888190;28;97683;-47
2022/11/05 02:11:51;;;;;;;0.67;0.50;;;16.80;99.90;;;17.55;57.55;101149.84;4885493;28;96905;-45
2022/11/05 02:14:17;;;;;;;1.00;0.70;;;16.70;99.90;;;17.53;57.46;101154.41;4883298;28;127318;-48
2022/11/05 02:16:52;;;;;;;1.07;0.80;;;16.70;99.90;;;17.52;57.46;101160.69;4883575;28;97695;-49
2022/11/05 02:19:57;;;;;;;1.00;0.83;;;16.60;99.90;;;17.52;57.64;101160.69;4875992;28;97873;-46
2022/11/05 02:22:31;;;;;;;1.37;0.80;;;16.60;99.90;;;17.49;57.55;101160.84;4884824;28;96934;-48
2022/11/05 02:25:18;;;;;;;0.63;0.57;;;16.60;99.90;;;17.48;57.72;101158.25;4885888;28;97103;-45
2022/11/05 02:28:23;;;;;;;1.47;0.90;;;16.60;99.90;;;17.44;57.65;101167.38;4883792;28;97299;-51
2022/11/05 02:31:07;;;;;;;2.57;0.87;;;16.50;99.90;;;17.37;57.85;101166.88;4865129;28;96829;-47
2022/11/05 02:33:55;;;;;;;0.90;0.50;;;16.40;99.90;;;17.41;58.02;101176.41;4889042;28;96746;-47
2022/11/05 02:36:51;;;;;;;0.97;0.67;;;16.50;99.90;;;17.41;57.65;101173.75;4885163;28;101645;-46
2022/11/05 02:39:46;;;;;;;0.67;0.60;;;16.50;99.90;;;17.39;57.76;101175.66;4867432;28;99975;-47
2022/11/05 02:42:31;;;;;;;1.23;0.97;;;16.50;99.90;;;17.32;58.29;101176.06;4872046;28;97173;-45
2022/11/05 02:45:14;;;;;;;1.03;0.70;;;16.30;99.90;;;17.32;58.10;101168.91;4866103;28;97624;-48
2022/11/05 02:47:46;;;;;;;1.07;0.80;;;16.30;99.90;;;17.36;58.20;101175.81;4871294;28;96801;-45
2022/11/05 02:50:26;;;;;;;0.80;0.53;;;16.40;99.90;;;17.34;58.14;101172.34;4858858;28;99826;-46
2022/11/05 02:53:02;;;;;;;0.70;0.70;;;16.40;99.90;;;17.36;57.77;101175.81;4868349;28;97577;-45
2022/11/05 02:55:48;;;;;;;0.50;0.50;;;16.40;99.90;;;17.28;58.30;101167.38;4873740;28;100455;-47
2022/11/05 02:58:14;;;;;;;0.73;0.70;;;16.30;99.90;;;17.31;58.04;101172.53;4873863;28;101045;-47
2022/11/05 03:00:51;;;;;;;3.33;1.80;;;16.30;99.90;;;17.29;57.86;101169.09;4903145;28;111674;-50
2022/11/05 03:03:23;;;;;;;1.53;0.50;;;16.30;99.90;;;17.25;58.26;101167.56;4893076;28;97546;-50
2022/11/05 03:06:24;;;;;;;0.90;0.50;;;16.20;99.90;;;17.24;58.34;101173.84;4889368;28;97537;-48
2022/11/05 03:09:12;;;;;;;2.23;0.67;;;16.30;99.90;;;17.15;58.63;101171.66;4885269;28;97930;-51
2022/11/05 03:12:15;;;;;;;0.70;0.60;;;16.10;99.90;;;17.18;58.80;101176.81;4870021;28;96970;-47
2022/11/05 03:15:06;;;;;;;1.17;0.67;;;16.10;99.90;;;17.20;58.41;101174.94;4878458;28;97462;-48
2022/11/05 03:18:17;;;;;;;0.57;0.53;;;16.30;99.90;;;17.11;58.54;101175.44;4894187;28;97668;-50
2022/11/05 03:20:56;;;;;;;1.63;0.80;;;16.10;99.90;;;17.06;59.08;101166.81;4884645;28;101233;-53
2022/11/05 03:23:29;;;;;;;0.70;0.50;;;16.00;99.90;;;17.05;58.91;101159.78;4893243;28;101300;-51
2022/11/05 03:26:05;;;;;;;1.00;0.50;;;16.00;99.90;;;17.06;58.78;101166.81;4893244;28;97044;-47
2022/11/05 03:28:35;;;;;;;1.10;0.87;;;16.00;99.90;;;17.10;58.77;101165.72;4894100;28;97479;-48
2022/11/05 03:31:02;;;;;;;2.20;1.13;;;16.10;99.90;;;17.11;58.63;101172.78;4892654;28;97387;-52
2022/11/05 03:33:32;;;;;;;2.03;1.00;;;16.10;99.90;;;17.04;58.51;101180.22;4886844;28;107476;-50
2022/11/05 03:36:05;;;;;;;1.03;0.80;;;16.00;99.90;;;16.99;59.10;101173.44;4886053;28;97598;-51
2022/11/05 03:38:36;;;;;;;0.80;0.50;;;15.90;99.90;;;17.04;59.01;101171.38;4866361;28;97221;-50
2022/11/05 03:41:10;;;;;;;0.43;0.40;;;15.90;99.90;;;17.10;58.53;101173.72;4887663;28;97105;-51
2022/11/05 03:43:44;;;;;;;1.50;0.90;;;16.10;99.90;;;17.18;58.37;101182.16;4882184;28;97726;-49
2022/11/05 03:46:39;;;;;;;1.27;0.80;;;16.30;99.90;;;17.20;58.29;101191.78;4874516;28;97448;-49
2022/11/05 03:49:11;;;;;;;1.17;0.60;;;16.30;99.90;;;17.16;58.58;101194.72;4876409;28;97160;-53
2022/11/05 03:51:58;;;;;;;1.20;0.60;;;16.30;99.90;;;17.14;58.36;101191.28;4872354;28;97733;-50
2022/11/05 03:54:24;;;;;;;1.07;0.60;;;16.20;99.90;;;17.15;58.37;101199.19;4872988;28;100552;-53
2022/11/05 03:56:59;;;;;;;0.70;0.57;;;16.20;99.90;;;17.17;58.25;101199.09;4880706;28;96908;-48
2022/11/05 03:59:26;;;;;;;1.20;0.60;;;16.20;99.90;;;17.19;58.29;101205.19;4885067;28;97347;-52
2022/11/05 04:01:53;;;;;;;0.90;0.70;;;16.20;99.90;;;17.18;58.38;101207.00;4875465;28;97499;-50
2022/11/05 04:04:19;;;;;;;1.67;1.27;;;16.20;99.90;;;17.17;58.22;101207.94;4894575;28;98003;-53
2022/11/05 04:14:57;;;;;;;0.60;0.50;;;16.10;99.90;;;17.14;58.36;101213.44;4890747;28;96805;-49
2022/11/05 04:17:23;;;;;;;0.80;0.60;;;16.20;99.90;;;17.11;58.60;101223.44;4893673;28;96704;-52
2022/11/05 04:25:21;;;;;;;0.77;0.40;;;16.20;99.90;;;17.20;58.39;101220.25;4881205;28;100476;-52
2022/11/05 04:27:47;;;;;;;1.07;0.70;;;16.20;99.90;;;17.20;58.11;101221.09;4869252;28;96772;-51
2022/11/05 04:30:20;;;;;;;2.33;0.80;;;16.30;99.90;;;17.20;58.34;101228.25;4900211;28;97466;-51
2022/11/05 04:33:01;;;;;;;0.77;0.70;;;16.20;99.90;;;17.17;58.09;101228.41;4884167;28;97524;-50
2022/11/05 04:35:48;;;;;;;0.93;0.57;;;16.20;99.90;;;17.15;58.38;101232.97;4891268;28;97391;-46
2022/11/05 04:38:17;;;;;;;0.70;0.70;;;16.10;99.90;;;17.14;58.41;101233.91;4871424;28;98760;-54
2022/11/05 04:40:45;;;;;;;0.50;0.50;;;16.20;99.90;;;17.17;58.29;101241.75;4893952;28;97247;-49
2022/11/05 04:43:14;;;;;;;0.30;0.30;;;16.20;99.90;;;17.22;58.23;101243.25;4892486;28;101794;-53
2022/11/05 04:45:41;;;;;;;0.83;0.40;;;16.30;99.90;;;17.26;57.93;101243.91;4886156;28;97195;-54
2022/11/05 04:48:07;;;;;;;0.67;0.50;;;16.40;99.90;;;17.25;57.84;101242.22;4886547;28;96877;-52
2022/11/05 04:50:33;;;;;;;0.67;0.57;;;16.40;99.90;;;17.19;58.12;101239.84;4868329;28;97308;-55
2022/11/05 04:52:59;;;;;;;0.77;0.40;;;16.20;99.90;;;17.18;57.97;101235.47;4885539;28;97051;-51
2022/11/05 04:55:26;;;;;;;0.50;0.50;;;16.20;99.90;;;17.20;57.95;101229.09;4889351;28;97762;-53
2022/11/05 04:57:53;;;;;;;0.53;0.40;;;16.30;99.90;;;17.21;57.93;101237.97;4885538;28;96932;-50
2022/11/05 05:00:21;;;;;;;0.60;0.40;;;16.30;99.90;;;17.25;57.78;101236.88;4885443;28;97018;-54
2022/11/05 05:02:47;;;;;;;1.13;0.47;;;16.40;99.90;;;17.30;57.59;101223.28;4884075;28;98192;-46
2022/11/05 05:05:14;;;;;;;1.00;0.57;;;16.50;99.90;;;17.37;57.39;101232.69;4890974;28;97935;-49
2022/11/05 05:07:40;;;;;;;0.60;0.33;;;16.60;99.90;;;17.36;57.33;101234.50;4896168;28;99412;-52
2022/11/05 05:10:09;;;;;;;0.43;0.33;;;16.60;99.90;;;17.34;57.48;101236.34;4885760;28;97599;-48
2022/11/05 05:12:35;;;;;;;0.60;0.43;;;16.50;99.90;;;17.27;57.79;101226.97;4872627;28;97809;-53
2022/11/05 05:15:01;;;;;;;1.53;0.70;;;16.30;99.90;;;17.27;57.35;101232.31;4885707;28;97468;-49
2022/11/05 05:17:27;;;;;;;1.23;0.50;;;16.30;99.90;;;17.21;57.69;101240.63;4897540;28;97180;-50
2022/11/05 05:22:37;;;;;;;1.13;0.90;;;16.30;99.90;;;17.25;57.62;101239.53;4888853;28;97181;-48
2022/11/05 05:25:04;;;;;;;1.10;0.60;;;16.40;99.90;;;17.25;57.46;101248.41;4890540;28;104149;-50
2022/11/05 05:27:30;;;;;;;0.53;0.50;;;16.30;99.90;;;17.21;57.80;101245.97;4893318;28;97512;-46
2022/11/05 05:29:58;;;;;;;0.90;0.70;;;16.30;99.90;;;17.15;57.85;101240.97;4888451;28;97160;-51
2022/11/05 05:35:57;;;;;;;1.27;0.63;;;16.20;99.90;;;17.22;57.70;101253.03;5055218;23;98110;-54
2022/11/05 05:43:47;;;;;;;0.60;0.20;;;16.40;99.90;;;17.27;57.47;101261.63;4771436;28;97838;-53
2022/11/05 05:47:25;;;;;;;0.60;0.40;;;16.50;99.90;;;17.21;57.65;101253.94;4627944;29;102339;-56
2022/11/05 05:51:03;;;;;;;1.50;0.50;;;16.30;99.90;;;17.24;57.57;101261.81;4674252;29;100996;-54
2022/11/05 05:54:38;;;;;;;0.40;0.30;;;16.40;99.90;;;17.25;57.31;101263.53;4611409;29;97040;-55
2022/11/05 05:58:25;;;;;;;0.33;0.30;;;16.40;99.90;;;17.33;57.21;101266.63;4544594;29;97309;-56
2022/11/05 06:04:58;;;;;;;1.10;0.73;;;16.60;99.90;;;17.12;57.89;101283.78;4576511;29;98851;-55
2022/11/05 06:08:57;;;;;;;0.83;0.57;;;16.20;99.90;;;17.23;57.74;101286.75;4565813;30;98305;-50
2022/11/05 06:28:10;;;;;;;0.70;0.57;;;16.40;99.90;;;17.57;56.34;101300.91;3960996;30;10331125;-56
2022/11/05 06:31:02;;;;;;;0.90;0.60;;;17.10;99.90;;;17.72;55.76;101292.09;4498657;30;97609;-56
2022/11/05 06:33:42;;;;;;;0.60;0.50;;;17.40;99.90;;;17.78;55.30;101302.44;4531781;30;99009;-50
2022/11/05 06:36:18;;;;;;;1.60;0.70;;;17.50;99.90;;;17.77;55.44;101303.38;4419915;30;98413;-53
2022/11/05 06:38:45;;;;;;;0.83;0.50;;;17.30;99.90;;;17.77;55.45;101304.25;4514602;30;98067;-55
2022/11/05 06:41:22;;;;;;;0.67;0.40;;;17.30;99.90;;;17.83;54.93;101308.41;4548818;29;98149;-51
2022/11/05 06:44:14;;;;;;;1.67;0.77;;;17.40;99.90;;;17.67;55.47;101310.16;4621220;29;102281;-56
2022/11/05 06:46:46;;;;;;;0.33;0.33;;;17.00;99.90;;;17.63;55.89;101317.44;4697539;29;97596;-56
2022/11/05 06:49:28;;;;;;;2.67;1.90;;;16.90;99.90;;;17.55;55.23;101320.53;4679480;28;97495;-52
2022/11/05 06:52:02;;;;;;;0.97;0.40;;;16.80;99.90;;;17.41;55.95;101323.09;4725702;28;97252;-53
2022/11/05 06:55:38;;;;;;;1.90;0.90;;;16.50;99.90;;;17.26;56.76;101337.25;4582978;28;98895;-48
2022/11/05 06:59:01;;;;;;;0.73;0.43;;;16.30;99.90;;;17.13;57.29;101328.16;4610783;28;101277;-55
2022/11/05 07:02:16;;;;;;;1.77;0.70;;;16.10;99.90;;;17.13;57.35;101333.50;4656692;29;97357;-49
2022/11/05 07:04:43;;;;;;;1.70;0.90;;;16.20;99.90;;;17.14;57.17;101340.53;4736931;28;97697;-50
2022/11/05 07:07:47;;;;;;;2.00;0.60;;;16.20;99.90;;;17.20;57.10;101345.53;4691022;28;97628;-55
2022/11/05 07:15:13;;;;;;;3.73;2.20;;;15.70;99.90;;;15.65;51.11;101354.91;4766765;28;96987;-54
2022/11/05 07:18:08;;;;;;;4.17;2.33;;;14.50;99.90;;;15.13;50.22;101362.50;4648919;29;97400;-56
2022/11/05 07:21:18;;;;;;;3.23;1.90;;;14.00;99.90;;;14.64;51.48;101362.88;4702215;29;102241;-51
2022/11/05 07:24:48;;;;;;;5.60;2.87;;;13.60;99.90;;;14.27;55.17;101361.66;4590314;29;101234;-54
2022/11/05 07:28:55;;;;;;;4.77;2.17;;;13.20;99.90;;;13.86;57.51;101366.78;4676310;29;96833;-54
2022/11/05 07:31:51;;;;;;;5.33;2.70;;;12.90;99.90;;;13.75;55.27;101373.44;4567509;29;97121;-52
2022/11/05 07:34:52;;;;;;;6.43;2.93;;;12.80;99.90;;;13.52;55.32;101371.63;4590311;29;102749;-51
2022/11/05 07:37:19;;;;;;;4.77;2.60;;;12.60;99.90;;;13.38;56.31;101372.97;4543899;29;99888;-53
2022/11/05 07:39:46;;;;;;;5.23;3.03;;;12.50;99.90;;;13.30;57.97;101380.31;4680290;29;97320;-53
2022/11/05 07:42:35;;;;;;;3.33;2.70;;;12.40;99.90;;;13.09;56.26;101375.75;4681838;28;97490;-55
2022/11/05 07:45:05;;;;;;;6.57;2.83;;;12.30;99.90;;;12.93;57.46;101375.41;4647119;28;97672;-52
2022/11/05 07:47:33;;;;;;;6.60;2.73;;;12.20;99.90;;;12.86;57.59;101388.91;4790188;28;97523;-48
2022/11/05 07:50:06;;;;;;;7.33;3.80;;;12.20;99.90;;;13.06;64.29;101392.63;4742969;28;98256;-54
2022/11/05 07:52:33;;;;;;;4.17;2.90;;;12.30;99.90;;;13.16;59.59;101387.00;4724987;28;97254;-55
2022/11/05 07:55:10;;;;;;;3.97;2.53;;;12.40;99.90;;;13.37;63.12;101388.94;4690239;28;97438;-55
2022/11/05 07:57:45;;;;;;;6.87;3.07;;;12.50;99.90;;;13.45;62.05;101394.81;4822299;28;97866;-58
2022/11/05 08:00:20;;;;;;;4.07;2.93;;;12.60;99.90;;;13.62;64.09;101391.56;4787095;28;96752;-54
2022/11/05 08:19:26;;;;;;;3.60;2.30;;;13.30;99.90;;;14.21;63.58;101402.56;4689707;29;97324;-57
2022/11/05 08:57:02;;;;;;;0.73;0.60;;;16.40;99.90;;;17.33;56.26;101413.28;4855532;28;97401;-54
2022/11/05 09:12:13;;;;;;;2.80;2.07;;;17.70;99.90;;;17.88;54.61;101422.88;4761838;29;97475;-50
2022/11/05 09:42:39;;;;;;;1.67;0.80;;;18.00;99.90;;;18.44;53.23;101430.44;4716668;29;97744;-54
2022/11/05 09:54:25;;;;;;;0.40;0.40;;;18.10;99.90;;;18.44;53.00;101427.78;4702255;29;97822;-49
2022/11/05 10:05:03;;;;;;;2.40;1.60;;;18.10;99.90;;;18.16;49.77;101431.13;4654016;29;97520;-55
2022/11/05 10:11:24;;;;;;;1.70;1.10;;;17.50;99.90;;;17.91;53.29;101444.94;4703354;29;97327;-53
2022/11/05 10:13:57;;;;;;;1.50;0.70;;;17.40;99.90;;;17.67;54.39;101446.22;4731398;29;97393;-53
2022/11/05 10:17:32;;;;;;;1.73;0.47;;;17.00;99.90;;;17.72;54.83;101444.19;4785427;29;98157;-53
2022/11/05 10:25:12;;;;;;;2.63;1.07;;;16.70;99.90;;;17.05;54.31;101436.97;4790734;29;97457;-53
2022/11/05 10:32:35;;;;;;;1.80;0.30;;;16.60;99.90;;;17.13;55.49;101445.44;4744098;29;97242;-53
2022/11/05 10:35:05;;;;;;;1.50;0.80;;;16.60;99.90;;;17.09;52.79;101446.56;4746675;29;100810;-55
2022/11/05 10:37:34;;;;;;;1.97;1.10;;;16.60;99.90;;;17.09;50.68;101443.88;4753889;28;97001;-51
2022/11/05 10:40:01;;;;;;;0.60;0.30;;;16.60;99.90;;;17.14;55.68;101452.50;4800002;28;97579;-53
2022/11/05 10:42:53;;;;;;;1.90;0.90;;;16.60;99.90;;;17.23;54.20;101452.06;4855442;28;99361;-54
2022/11/05 10:45:58;;;;;;;1.83;1.00;;;16.70;99.90;;;17.20;53.73;101450.38;4790420;28;102090;-53
2022/11/05 10:49:47;;;;;;;;;;;;;;;;;;;;;
2022/11/05 10:52:22;;;;;;;1.03;0.70;;;16.70;99.90;;;16.99;50.59;101456.81;4777796;28;114838;-49
2022/11/05 10:55:01;;;;;;;1.90;0.53;;;16.60;99.90;;;17.12;54.82;101457.06;4901676;28;98320;-54
2022/11/05 10:57:37;;;;;;;0.50;0.50;;;16.60;99.90;;;17.22;55.99;101466.31;4885499;28;97285;-53
2022/11/05 11:00:21;;;;;;;3.13;0.60;;;16.70;99.90;;;17.38;51.01;101456.59;4791415;28;97283;-53
2022/11/05 11:03:04;;;;;;;1.27;0.43;;;17.00;99.90;;;17.54;55.64;101462.88;4849659;28;97488;-55
2022/11/05 11:05:37;;;;;;;0.70;0.40;;;17.10;99.90;;;17.72;52.65;101460.19;4829927;28;97264;-54
2022/11/05 11:08:23;;;;;;;2.20;0.60;;;17.50;99.90;;;17.77;50.35;101452.81;4858037;28;102024;-55
2022/11/05 11:10:58;;;;;;;1.33;0.50;;;17.50;99.90;;;17.58;47.38;101458.22;4828386;28;97483;-57
2022/11/05 11:13:49;;;;;;;1.30;0.77;;;17.30;99.90;;;17.57;53.99;101452.97;4874064;28;97613;-54
2022/11/05 11:16:26;;;;;;;2.27;0.90;;;17.10;99.90;;;17.32;47.63;101451.56;4834328;28;104372;-55
2022/11/05 11:19:03;;;;;;;0.40;0.40;;;16.90;99.90;;;17.35;52.12;101446.06;4854827;28;97850;-50
2022/11/05 11:21:33;;;;;;;1.40;0.30;;;16.80;99.90;;;17.38;55.25;101439.75;4817481;28;97263;-51
2022/11/05 11:24:03;;;;;;;0.40;0.37;;;16.90;99.90;;;17.48;55.45;101439.16;4799095;28;97192;-53
2022/11/05 11:26:42;;;;;;;0.87;0.50;;;17.00;99.90;;;17.46;53.97;101435.72;4821738;28;101704;-52
2022/11/05 11:29:38;;;;;;;0.43;0.43;;;17.00;99.90;;;17.55;53.65;101432.56;4737243;28;97801;-54
2022/11/05 11:32:32;;;;;;;0.57;0.40;;;17.20;99.90;;;17.46;48.64;101433.03;4749084;28;96887;-56
2022/11/05 11:35:40;;;;;;;0.50;0.50;;;17.10;99.90;;;17.38;52.34;101429.94;4801192;28;97196;-55
2022/11/05 11:38:13;;;;;;;0.53;0.40;;;17.00;99.90;;;17.51;54.88;101436.34;4882556;28;102168;-52
2022/11/05 12:03:16;;;;;;;0.30;0.30;;;17.10;99.90;;;18.42;45.00;101435.00;4960153;27;97010;-55
2022/11/05 12:06:32;;;;;;;0.70;0.40;;;18.20;99.30;;;18.10;49.48;101429.66;4920223;27;97387;-52
2022/11/05 12:09:30;;;;;;;0.90;0.20;;;17.90;99.90;;;18.00;50.40;101427.56;4897729;27;102354;-51
2022/11/05 12:12:13;;;;;;;0.20;0.20;;;17.60;99.90;;;18.01;46.38;101430.16;4979870;27;97881;-50
2022/11/05 12:15:01;;;;;;;0.70;0.20;;;17.70;99.90;;;17.85;47.48;101423.91;4937203;27;99552;-53
2022/11/05 12:17:51;;;;;;;0.30;0.30;;;17.50;99.90;;;17.81;47.54;101425.91;4880263;27;97746;-53
2022/11/05 12:20:50;;;;;;;0.77;0.30;;;17.50;99.90;;;17.69;45.99;101425.69;4926280;27;100773;-52
2022/11/05 12:23:56;;;;;;;0.67;0.40;;;17.40;99.90;;;17.66;53.74;101425.81;4885251;28;102461;-52
2022/11/05 12:27:10;;;;;;;0.40;0.33;;;17.20;99.90;;;17.70;51.77;101424.75;4872216;27;97396;-53
2022/11/05 12:29:50;;;;;;;0.33;0.27;;;17.40;99.90;;;17.46;46.27;101422.38;4931650;27;97945;-52
2022/11/05 12:32:43;;;;;;;0.20;0.20;;;17.20;99.80;;;17.64;49.21;101414.34;4884730;27;102486;-53
2022/11/05 12:35:38;;;;;;;0.63;0.30;;;17.30;99.90;;;17.41;50.40;101418.25;4917305;27;97557;-54
2022/11/05 12:38:52;;;;;;;0.67;0.43;;;17.10;99.90;;;17.48;54.20;101420.50;4911051;27;98555;-54
2022/11/05 12:42:08;;;;;;;1.80;0.57;;;17.00;99.90;;;17.69;54.31;101423.03;4940604;27;97518;-49
2022/11/05 12:45:17;;;;;;;1.07;0.47;;;17.40;99.90;;;17.86;53.40;101420.31;4916550;27;100318;-52
2022/11/05 12:48:12;;;;;;;1.07;0.40;;;17.70;99.90;;;18.00;53.14;101412.41;4950516;27;102432;-52
2022/11/05 12:51:38;;;;;;;0.37;0.20;;;17.90;99.90;;;18.09;51.37;101411.91;4916297;28;97358;-52
2022/11/05 12:54:32;;;;;;;0.67;0.50;;;18.00;99.90;;;18.23;50.80;101412.97;4905739;28;97352;-54
2022/11/05 12:57:03;;;;;;;1.30;0.57;;;18.20;99.90;;;18.26;48.24;101412.78;4883568;27;97933;-54
2022/11/05 12:59:59;;;;;;;0.30;0.30;;;18.30;99.90;;;18.38;51.84;101417.44;4898609;27;99040;-51
2022/11/05 13:02:48;;;;;;;1.20;0.50;;;18.30;99.90;;;18.43;51.89;101413.56;4930236;28;98522;-53
2022/11/05 13:06:00;;;;;;;0.70;0.53;;;18.40;99.90;;;18.49;51.73;101409.66;4893534;28;97956;-52
2022/11/05 13:09:10;;;;;;;2.13;0.57;;;18.40;99.90;;;18.51;50.11;101402.41;4907688;28;103129;-52
2022/11/05 13:12:03;;;;;;;0.57;0.30;;;18.40;99.90;;;18.33;47.07;101398.13;4861190;28;102513;-52
2022/11/05 13:14:51;;;;;;;0.57;0.40;;;18.10;99.90;;;18.22;48.28;101381.84;4866369;28;97456;-55
2022/11/05 13:17:29;;;;;;;1.00;0.50;;;17.90;99.90;;;18.35;52.02;101381.06;4897564;28;98010;-53
2022/11/05 13:20:26;;;;;;;0.77;0.27;;;18.10;99.90;;;18.32;50.67;101381.25;4889769;28;99577;-54
2022/11/05 13:23:17;;;;;;;2.43;0.87;;;18.10;99.90;;;18.18;50.37;101382.97;4894130;28;99391;-54
2022/11/05 13:25:58;;;;;;;0.50;0.40;;;17.90;99.90;;;18.15;51.24;101378.66;4937307;28;97493;-53
2022/11/05 13:28:48;;;;;;;1.90;0.50;;;17.90;99.90;;;18.00;44.74;101380.38;4939498;28;97443;-53
2022/11/05 13:31:22;;;;;;;0.80;0.50;;;17.90;99.70;;;17.78;45.17;101382.47;4913281;28;101722;-55
2022/11/05 13:33:53;;;;;;;0.80;0.40;;;17.50;99.90;;;17.62;44.19;101384.22;4932916;28;97766;-53
2022/11/05 13:39:25;;;;;;;0.30;0.30;;;17.10;99.90;;;17.67;53.05;101388.38;4887666;28;97799;-50
2022/11/05 13:42:25;;;;;;;0.30;0.30;;;17.30;99.90;;;17.56;52.76;101390.75;4872270;28;98404;-51
2022/11/05 13:45:34;;;;;;;1.10;0.43;;;17.10;99.60;;;17.56;49.37;101385.41;4930095;28;97389;-54
2022/11/05 13:48:21;;;;;;;0.30;0.30;;;17.20;99.90;;;17.58;52.65;101372.00;4898169;28;96984;-54
2022/11/05 13:51:10;;;;;;;1.40;0.50;;;17.20;99.90;;;17.53;46.76;101365.13;4911410;28;98384;-51
2022/11/05 13:54:12;;;;;;;0.90;0.30;;;17.20;99.90;;;17.57;47.77;101368.47;4857663;28;97690;-53
2022/11/05 13:57:30;;;;;;;1.23;0.60;;;17.30;99.90;;;17.51;49.55;101369.69;4849924;28;101656;-51
2022/11/05 14:00:19;;;;;;;1.50;0.30;;;17.10;99.90;;;17.43;49.98;101374.53;4899374;28;97342;-54
2022/11/05 14:03:01;;;;;;;0.30;0.30;;;17.10;99.90;;;17.32;51.93;101368.03;4912005;27;97271;-51
2022/11/05 14:05:35;;;;;;;0.60;0.30;;;17.00;99.90;;;17.32;52.50;101366.22;4834355;28;102587;-52
2022/11/05 14:08:19;;;;;;;0.80;0.50;;;17.00;99.90;;;17.29;49.84;101361.06;4809861;28;97232;-54
2022/11/05 14:11:33;;;;;;;1.50;0.50;;;16.90;99.90;;;17.27;48.45;101368.28;4850063;28;97776;-54
2022/11/05 14:14:28;;;;;;;0.57;0.40;;;16.90;99.90;;;17.13;46.88;101357.47;4824977;28;97386;-54
2022/11/05 14:18:12;;;;;;;0.37;0.30;;;16.80;99.90;;;17.25;54.19;101364.84;4795725;28;97537;-56
2022/11/05 14:21:33;;;;;;;2.37;0.50;;;16.80;99.90;;;17.33;54.19;101353.75;4703525;28;97364;-54
2022/11/05 14:24:43;;;;;;;1.60;0.50;;;16.80;99.90;;;17.23;48.02;101361.41;4726121;28;97634;-55
2022/11/05 14:27:54;;;;;;;0.60;0.30;;;17.00;99.90;;;17.22;46.40;101351.69;4802831;28;97142;-53
2022/11/05 14:30:56;;;;;;;1.60;0.30;;;16.90;99.90;;;17.12;46.88;101353.97;4784495;28;102209;-55
2022/11/05 14:37:21;;;;;;;0.97;0.40;;;16.60;99.90;;;17.05;50.35;101362.31;4822764;27;97611;-52
2022/11/05 14:40:47;;;;;;;0.43;0.23;;;16.60;99.90;;;17.02;45.77;101338.50;4723236;27;97484;-54
2022/11/05 14:43:16;;;;;;;0.20;0.20;;;16.60;99.40;;;17.01;52.73;101339.44;4785179;28;97456;-53
2022/11/05 14:46:14;;;;;;;1.80;0.40;;;16.50;99.90;;;17.03;54.08;101337.56;4840687;28;97223;-54
2022/11/05 14:49:04;;;;;;;0.47;0.30;;;16.50;99.90;;;16.87;44.46;101327.69;4814839;28;97239;-54
2022/11/05 14:51:52;;;;;;;1.97;0.60;;;16.50;98.80;;;16.87;49.21;101338.34;4857419;28;99235;-55
2022/11/05 14:54:47;;;;;;;1.13;0.50;;;16.40;99.40;;;16.73;45.67;101332.88;4902983;28;101072;-52
2022/11/05 14:58:01;;;;;;;0.70;0.57;;;16.30;99.00;;;16.70;52.48;101330.38;4827367;28;101793;-54
2022/11/05 15:00:46;;;;;;;0.93;0.60;;;16.20;99.90;;;16.56;44.15;101327.50;4822708;28;97802;-52
2022/11/05 15:03:38;;;;;;;1.20;0.40;;;16.20;99.10;;;16.46;46.38;101334.22;4818351;28;97308;-50
2022/11/05 15:07:04;;;;;;;1.17;0.60;;;16.10;99.20;;;16.44;48.53;101338.75;4859743;28;101413;-51